createdAt,value
2019-01-30T00:01:16.403Z,4.93
2019-01-30T00:03:44.617Z,4.87
2019-01-30T00:06:12.661Z,4.95
2019-01-30T00:08:40.748Z,4.45
2019-01-30T00:11:08.783Z,4.30
2019-01-30T00:13:36.884Z,4.72
2019-01-30T00:16:04.906Z,4.50
2019-01-30T00:18:32.936Z,4.93
2019-01-30T00:21:00.963Z,5.57
2019-01-30T00:23:28.976Z,5.20
2019-01-30T00:25:56.984Z,4.87
2019-01-30T00:28:24.991Z,5.07
2019-01-30T00:30:53.041Z,4.90
2019-01-30T00:33:21.074Z,3.87
2019-01-30T00:35:49.230Z,4.83
2019-01-30T00:38:17.254Z,4.77
2019-01-30T00:40:46.058Z,4.97
2019-01-30T00:43:16.825Z,4.37
2019-01-30T00:45:47.161Z,4.70
2019-01-30T00:48:15.377Z,4.60
2019-01-30T00:50:43.489Z,4.37
2019-01-30T00:53:11.616Z,5.22
2019-01-30T00:55:39.735Z,4.80
2019-01-30T00:58:08.480Z,4.30
2019-01-30T01:00:38.112Z,4.77
2019-01-30T01:03:06.247Z,5.13
2019-01-30T01:05:37.811Z,5.20
2019-01-30T01:08:03.989Z,4.67
2019-01-30T01:10:33.832Z,5.13
2019-01-30T01:13:06.260Z,5.00
2019-01-30T01:15:37.732Z,4.57
2019-01-30T01:18:07.278Z,4.30
2019-01-30T01:20:35.380Z,4.83
2019-01-30T01:23:03.376Z,5.03
2019-01-30T01:25:34.351Z,4.73
2019-01-30T01:28:03.589Z,5.40
2019-01-30T01:30:31.494Z,4.83
2019-01-30T01:33:01.509Z,5.37
2019-01-30T01:35:29.299Z,4.83
2019-01-30T01:37:57.312Z,5.60
2019-01-30T01:40:25.404Z,4.17
2019-01-30T01:42:53.676Z,5.83
2019-01-30T01:45:22.512Z,4.67
2019-01-30T01:47:50.957Z,5.40
2019-01-30T01:50:21.023Z,4.53
2019-01-30T01:52:49.105Z,6.33
2019-01-30T01:55:17.263Z,6.23
2019-01-30T01:57:45.286Z,4.73
2019-01-30T02:00:14.929Z,5.10
2019-01-30T02:02:43.036Z,5.10
2019-01-30T02:05:12.371Z,6.00
2019-01-30T02:07:40.420Z,6.60
2019-01-30T02:10:10.061Z,5.67
2019-01-30T02:12:38.099Z,5.50
2019-01-30T02:15:08.027Z,5.60
2019-01-30T02:17:36.145Z,6.63
2019-01-30T02:20:06.981Z,6.10
2019-01-30T02:22:35.146Z,6.40
2019-01-30T02:25:03.224Z,5.47
2019-01-30T02:27:31.334Z,7.20
2019-01-30T02:29:59.591Z,6.33
2019-01-30T02:32:28.429Z,6.80
2019-01-30T02:34:56.534Z,6.30
2019-01-30T02:37:24.551Z,6.73
2019-01-30T02:39:52.685Z,6.62
2019-01-30T02:42:20.707Z,5.83
2019-01-30T02:44:48.792Z,7.40
2019-01-30T02:47:16.929Z,6.70
2019-01-30T02:49:44.995Z,5.77
2019-01-30T02:52:13.031Z,6.93
2019-01-30T02:54:41.375Z,7.23
2019-01-30T02:57:09.481Z,6.62
2019-01-30T02:59:37.509Z,6.87
2019-01-30T03:02:12.765Z,7.33
2019-01-30T03:04:40.875Z,8.37
2019-01-30T03:07:08.944Z,8.30
2019-01-30T03:09:37.000Z,7.50
2019-01-30T03:12:05.112Z,7.97
2019-01-30T03:14:33.166Z,8.90
2019-01-30T03:17:01.223Z,7.30
2019-01-30T03:19:29.231Z,9.00
2019-01-30T03:21:57.351Z,9.13
2019-01-30T03:24:25.484Z,9.23
2019-01-30T03:26:53.491Z,8.63
2019-01-30T03:29:21.766Z,8.23
2019-01-30T03:31:49.815Z,8.60
2019-01-30T03:34:18.299Z,8.93
2019-01-30T03:36:46.375Z,9.17
2019-01-30T03:39:14.529Z,9.13
2019-01-30T03:41:42.607Z,8.90
2019-01-30T03:44:10.942Z,10.47
2019-01-30T03:46:39.063Z,9.00
2019-01-30T03:49:07.119Z,9.00
2019-01-30T03:51:35.938Z,7.63
2019-01-30T03:54:04.066Z,9.73
2019-01-30T03:56:32.195Z,8.57
2019-01-30T03:59:00.348Z,8.10
2019-01-30T04:01:28.424Z,8.48
2019-01-30T04:03:56.539Z,9.40
2019-01-30T04:06:24.568Z,8.90
2019-01-30T04:08:53.116Z,8.93
2019-01-30T04:11:21.145Z,9.23
2019-01-30T04:13:50.063Z,8.87
2019-01-30T04:16:18.183Z,9.00
2019-01-30T04:18:46.195Z,8.63
2019-01-30T04:21:17.098Z,8.48
2019-01-30T04:23:45.182Z,7.40
2019-01-30T04:26:13.367Z,7.97
2019-01-30T04:28:41.373Z,8.53
2019-01-30T04:31:10.139Z,9.33
2019-01-30T04:33:38.146Z,9.30
2019-01-30T04:36:06.172Z,8.67
2019-01-30T04:38:34.199Z,8.27
2019-01-30T04:41:02.297Z,8.27
2019-01-30T04:43:31.865Z,9.15
2019-01-30T04:46:00.106Z,8.27
2019-01-30T04:48:28.177Z,9.03
2019-01-30T04:50:56.228Z,8.57
2019-01-30T04:53:27.223Z,8.83
2019-01-30T04:55:55.268Z,8.50
2019-01-30T04:58:23.294Z,9.27
2019-01-30T05:00:54.439Z,8.63
2019-01-30T05:03:24.507Z,9.80
2019-01-30T05:05:52.442Z,8.68
2019-01-30T05:08:20.576Z,9.50
2019-01-30T05:10:50.364Z,8.33
2019-01-30T05:13:18.492Z,8.20
2019-01-30T05:15:46.533Z,8.93
2019-01-30T05:18:14.599Z,8.87
2019-01-30T05:20:42.684Z,9.00
2019-01-30T05:23:10.737Z,8.55
2019-01-30T05:25:38.749Z,8.93
2019-01-30T05:28:07.615Z,8.25
2019-01-30T05:30:35.876Z,9.20
2019-01-30T05:33:03.942Z,8.87
2019-01-30T05:35:33.605Z,8.73
2019-01-30T05:38:01.623Z,8.80
2019-01-30T05:40:32.556Z,9.17
2019-01-30T05:43:00.583Z,8.70
2019-01-30T05:45:28.604Z,8.85
2019-01-30T05:47:56.664Z,8.90
2019-01-30T05:50:24.720Z,8.88
2019-01-30T05:52:52.808Z,9.03
2019-01-30T05:55:21.107Z,9.17
2019-01-30T05:57:50.457Z,9.17
2019-01-30T06:00:20.874Z,8.80
2019-01-30T06:02:50.510Z,9.30
2019-01-30T06:05:20.207Z,8.70
2019-01-30T06:07:49.850Z,9.97
2019-01-30T06:10:19.565Z,9.33
2019-01-30T06:12:49.648Z,9.14
2019-01-30T06:15:18.080Z,8.77
2019-01-30T06:17:46.126Z,9.30
2019-01-30T06:23:01.780Z,7.97
2019-01-30T06:25:30.239Z,7.97
2019-01-30T06:27:59.897Z,8.58
2019-01-30T06:33:02.596Z,8.00
2019-01-30T06:35:30.624Z,8.17
2019-01-30T06:37:58.723Z,9.00
2019-01-30T06:43:04.752Z,10.47
2019-01-30T06:45:32.777Z,8.83
2019-01-30T06:48:02.316Z,14.50
2019-01-30T06:50:30.396Z,9.17
2019-01-30T06:52:58.451Z,9.80
2019-01-30T06:55:26.779Z,7.87
2019-01-30T06:57:57.266Z,8.53
2019-01-30T07:00:26.892Z,9.40
2019-01-30T07:02:57.739Z,9.00
2019-01-30T07:05:25.770Z,9.43
2019-01-30T07:07:56.191Z,9.00
2019-01-30T07:10:35.519Z,9.50
2019-01-30T07:13:04.063Z,9.53
2019-01-30T07:15:32.145Z,8.93
2019-01-30T07:18:00.219Z,8.27
2019-01-30T07:20:28.384Z,8.93
2019-01-30T07:22:58.527Z,9.17
2019-01-30T07:25:26.323Z,9.40
2019-01-30T07:27:54.341Z,8.93
2019-01-30T07:30:26.432Z,9.20
2019-01-30T07:32:54.486Z,9.00
2019-01-30T07:35:22.536Z,10.70
2019-01-30T07:37:53.333Z,9.15
2019-01-30T07:40:21.457Z,9.93
2019-01-30T07:42:52.966Z,8.67
2019-01-30T07:45:25.716Z,9.47
2019-01-30T07:47:54.652Z,9.97
2019-01-30T07:50:25.544Z,9.53
2019-01-30T07:52:53.643Z,9.37
2019-01-30T07:55:28.824Z,9.73
2019-01-30T07:58:01.296Z,9.83
2019-01-30T08:00:32.688Z,8.95
2019-01-30T08:03:05.299Z,9.80
2019-01-30T08:05:33.348Z,9.17
2019-01-30T08:08:03.138Z,8.43
2019-01-30T08:10:31.346Z,10.63
2019-01-30T08:12:59.430Z,15.70
2019-01-30T08:15:27.637Z,11.63
2019-01-30T08:18:00.406Z,10.10
2019-01-30T08:20:30.031Z,9.00
2019-01-30T08:23:00.076Z,10.17
2019-01-30T08:25:28.957Z,9.80
2019-01-30T08:27:59.958Z,9.40
2019-01-30T08:33:08.825Z,10.18
2019-01-30T08:35:36.951Z,9.97
2019-01-30T08:38:05.088Z,9.43
2019-01-30T08:40:33.182Z,10.27
2019-01-30T08:43:01.241Z,9.73
2019-01-30T08:45:35.927Z,10.40
2019-01-30T08:48:05.266Z,9.87
2019-01-30T08:50:33.322Z,10.23
2019-01-30T08:53:02.754Z,10.63
2019-01-30T08:55:30.840Z,13.47
2019-01-30T08:57:58.957Z,9.90
2019-01-30T09:00:31.728Z,10.93
2019-01-30T09:02:59.908Z,11.13
2019-01-30T09:05:27.993Z,11.27
2019-01-30T09:07:56.101Z,10.57
2019-01-30T09:10:25.236Z,11.15
2019-01-30T09:12:53.325Z,11.37
2019-01-30T09:15:23.541Z,12.43
2019-01-30T09:17:51.713Z,11.60
2019-01-30T09:20:21.519Z,12.00
2019-01-30T09:22:49.552Z,12.27
2019-01-30T09:25:18.654Z,12.07
2019-01-30T09:27:46.732Z,13.28
2019-01-30T09:30:18.971Z,12.40
2019-01-30T09:32:46.524Z,13.50
2019-01-30T09:35:14.527Z,10.77
2019-01-30T09:37:42.558Z,12.67
2019-01-30T09:40:12.406Z,13.70
2019-01-30T09:42:40.614Z,12.27
2019-01-30T09:45:10.297Z,13.43
2019-01-30T09:47:38.424Z,13.20
2019-01-30T09:50:09.955Z,12.82
2019-01-30T09:52:38.016Z,12.80
2019-01-30T09:55:07.654Z,14.15
2019-01-30T09:57:39.609Z,14.17
2019-01-30T10:00:11.764Z,13.45
2019-01-30T10:02:39.787Z,14.10
2019-01-30T10:05:09.564Z,14.40
2019-01-30T10:07:39.729Z,14.03
2019-01-30T10:10:15.479Z,13.90
2019-01-30T10:12:43.500Z,14.43
2019-01-30T10:15:13.248Z,15.72
2019-01-30T10:17:41.451Z,15.17
2019-01-30T10:20:18.144Z,14.10
2019-01-30T10:22:50.237Z,14.40
2019-01-30T10:25:20.651Z,14.40
2019-01-30T10:27:50.327Z,14.87
2019-01-30T10:32:58.175Z,14.07
2019-01-30T10:35:26.449Z,13.97
2019-01-30T10:37:57.868Z,14.33
2019-01-30T10:43:02.480Z,14.43
2019-01-30T10:45:30.622Z,13.83
2019-01-30T10:47:58.666Z,13.80
2019-01-30T10:50:27.565Z,14.13
2019-01-30T10:52:55.863Z,13.58
2019-01-30T10:55:25.036Z,13.87
2019-01-30T10:57:53.839Z,14.25
2019-01-30T11:00:23.038Z,14.33
2019-01-30T11:02:51.114Z,14.10
2019-01-30T11:05:19.213Z,14.13
2019-01-30T11:07:48.021Z,15.10
2019-01-30T11:10:17.156Z,15.23
2019-01-30T11:12:45.195Z,15.27
2019-01-30T11:15:14.858Z,15.07
2019-01-30T11:17:42.913Z,13.43
2019-01-30T11:20:14.931Z,16.20
2019-01-30T11:22:42.977Z,16.30
2019-01-30T11:25:12.782Z,15.47
2019-01-30T11:27:40.931Z,15.53
2019-01-30T11:30:11.178Z,16.53
2019-01-30T11:32:39.219Z,16.50
2019-01-30T11:35:09.394Z,16.90
2019-01-30T11:37:37.454Z,17.07
2019-01-30T11:40:07.307Z,18.87
2019-01-30T11:42:35.397Z,17.15
2019-01-30T11:45:04.618Z,17.63
2019-01-30T11:47:32.661Z,17.82
2019-01-30T11:50:00.709Z,16.82
2019-01-30T11:52:28.782Z,16.93
2019-01-30T11:54:56.811Z,17.00
2019-01-30T11:57:24.845Z,18.37
2019-01-30T11:59:52.885Z,16.65
2019-01-30T12:02:21.030Z,17.97
2019-01-30T12:04:49.085Z,17.37
2019-01-30T12:07:17.248Z,17.27
2019-01-30T12:09:45.264Z,17.97
2019-01-30T12:12:13.306Z,16.73
2019-01-30T12:14:41.408Z,18.07
2019-01-30T12:17:09.484Z,18.03
2019-01-30T12:19:37.610Z,17.93
2019-01-30T12:22:05.656Z,18.73
2019-01-30T12:24:33.693Z,19.13
2019-01-30T12:27:14.500Z,18.77
2019-01-30T12:29:42.570Z,18.27
2019-01-30T12:32:11.006Z,18.87
2019-01-30T12:34:39.098Z,21.43
2019-01-30T12:37:07.205Z,20.90
2019-01-30T12:39:35.319Z,20.40
2019-01-30T12:42:03.485Z,21.27
2019-01-30T12:44:33.529Z,20.97
2019-01-30T12:47:01.326Z,21.07
2019-01-30T12:49:29.398Z,21.63
2019-01-30T12:51:57.461Z,20.60
2019-01-30T12:54:25.583Z,20.03
2019-01-30T12:56:53.708Z,20.83
2019-01-30T12:59:21.814Z,21.03
2019-01-30T13:01:50.013Z,21.43
2019-01-30T13:04:18.079Z,21.13
2019-01-30T13:06:46.099Z,21.23
2019-01-30T13:09:14.200Z,20.67
2019-01-30T13:11:42.261Z,21.40
2019-01-30T13:14:10.291Z,22.60
2019-01-30T13:16:38.422Z,21.40
2019-01-30T13:19:06.661Z,21.77
2019-01-30T13:21:34.698Z,21.67
2019-01-30T13:24:02.738Z,21.15
2019-01-30T13:26:30.770Z,21.83
2019-01-30T13:28:58.814Z,22.20
2019-01-30T13:31:26.987Z,20.87
2019-01-30T13:33:55.031Z,22.20
2019-01-30T13:36:23.114Z,21.17
2019-01-30T13:38:51.210Z,21.67
2019-01-30T13:41:19.314Z,23.25
2019-01-30T13:43:47.327Z,23.70
2019-01-30T13:46:15.663Z,22.77
2019-01-30T13:48:43.701Z,22.50
2019-01-30T13:51:12.526Z,23.73
2019-01-30T13:53:40.619Z,23.62
2019-01-30T13:56:08.670Z,23.47
2019-01-30T13:58:36.721Z,23.10
2019-01-30T14:01:04.763Z,24.57
2019-01-30T14:03:32.864Z,22.20
2019-01-30T14:06:00.989Z,23.40
2019-01-30T14:08:29.119Z,22.13
2019-01-30T14:10:57.204Z,23.00
2019-01-30T14:13:25.293Z,22.97
2019-01-30T14:15:53.412Z,21.70
2019-01-30T14:18:21.545Z,22.13
2019-01-30T14:20:49.653Z,21.75
2019-01-30T14:23:17.826Z,21.60
2019-01-30T14:25:45.937Z,22.30
2019-01-30T14:28:13.988Z,25.40
2019-01-30T14:30:42.143Z,23.93
2019-01-30T14:33:10.235Z,26.23
2019-01-30T14:35:38.381Z,24.57
2019-01-30T14:38:06.506Z,21.50
2019-01-30T14:40:34.638Z,24.57
2019-01-30T14:43:02.950Z,27.30
2019-01-30T14:45:30.986Z,24.80
2019-01-30T14:47:59.048Z,27.35
2019-01-30T14:50:27.521Z,28.30
2019-01-30T14:52:55.817Z,26.65
2019-01-30T14:55:24.436Z,26.87
2019-01-30T14:57:53.138Z,25.37
2019-01-30T15:00:25.557Z,28.57
2019-01-30T15:02:53.693Z,29.40
2019-01-30T15:05:22.903Z,28.97
2019-01-30T15:07:51.212Z,28.03
2019-01-30T15:10:20.172Z,27.90
2019-01-30T15:12:48.212Z,27.50
2019-01-30T15:15:17.267Z,32.33
2019-01-30T15:17:45.478Z,29.87
2019-01-30T15:20:17.238Z,31.53
2019-01-30T15:22:45.358Z,30.00
2019-01-30T15:25:17.325Z,36.53
2019-01-30T15:27:45.419Z,37.98
2019-01-30T15:30:15.025Z,37.83
2019-01-30T15:32:43.808Z,37.28
2019-01-30T15:35:12.007Z,32.20
2019-01-30T15:37:40.117Z,33.00
2019-01-30T15:40:09.873Z,31.00
2019-01-30T15:42:48.966Z,29.90
2019-01-30T15:45:10.078Z,28.05
2019-01-30T15:47:38.375Z,30.63
2019-01-30T15:50:12.324Z,27.87
2019-01-30T15:52:40.459Z,27.43
2019-01-30T15:55:09.717Z,27.33
2019-01-30T15:57:38.379Z,28.07
2019-01-30T16:00:08.554Z,27.63
2019-01-30T16:02:37.301Z,28.83
2019-01-30T16:05:06.620Z,27.33
2019-01-30T16:07:35.197Z,27.98
2019-01-30T16:10:03.770Z,25.40
2019-01-30T16:12:32.316Z,28.90
2019-01-30T16:15:00.788Z,29.07
2019-01-30T16:17:29.247Z,27.32
2019-01-30T16:19:58.252Z,29.03
2019-01-30T16:22:26.812Z,30.75
2019-01-30T16:24:55.198Z,29.63
2019-01-30T16:27:23.674Z,30.13
2019-01-30T16:29:52.289Z,30.32
2019-01-30T16:32:20.782Z,30.27
2019-01-30T16:34:48.824Z,29.47
2019-01-30T16:37:16.903Z,32.13
2019-01-30T16:39:45.081Z,34.73
2019-01-30T16:42:13.372Z,32.77
2019-01-30T16:44:41.466Z,34.73
2019-01-30T16:47:09.627Z,31.07
2019-01-30T16:49:37.747Z,33.03
2019-01-30T16:52:05.891Z,34.63
2019-01-30T16:54:34.021Z,33.98
2019-01-30T16:57:02.198Z,33.23
2019-01-30T16:59:30.403Z,31.23
2019-01-30T17:01:58.538Z,30.43
2019-01-30T17:04:26.646Z,32.43
2019-01-30T17:06:54.808Z,32.80
2019-01-30T17:09:22.929Z,31.50
2019-01-30T17:11:51.092Z,30.70
2019-01-30T17:14:19.290Z,32.20
2019-01-30T17:16:47.475Z,30.57
2019-01-30T17:19:16.456Z,31.97
2019-01-30T17:21:44.623Z,33.80
2019-01-30T17:24:12.758Z,32.47
2019-01-30T17:26:40.912Z,33.77
2019-01-30T17:29:08.958Z,33.80
2019-01-30T17:31:37.047Z,34.23
2019-01-30T17:34:05.211Z,34.20
2019-01-30T17:36:33.415Z,34.63
2019-01-30T17:39:01.504Z,34.70
2019-01-30T17:41:29.662Z,33.63
2019-01-30T17:43:57.702Z,35.57
2019-01-30T17:46:27.896Z,34.53
2019-01-30T17:48:55.762Z,37.30
2019-01-30T17:51:24.019Z,34.23
2019-01-30T17:53:52.287Z,33.60
2019-01-30T17:56:20.550Z,35.23
2019-01-30T17:58:49.129Z,35.20
2019-01-30T18:01:17.315Z,34.20
2019-01-30T18:03:46.206Z,33.73
2019-01-30T18:06:14.248Z,36.50
2019-01-30T18:08:42.418Z,35.33
2019-01-30T18:11:10.461Z,35.50
2019-01-30T18:13:38.529Z,34.77
2019-01-30T18:16:07.380Z,34.63
2019-01-30T18:18:35.454Z,37.10
2019-01-30T18:21:03.549Z,36.80
2019-01-30T18:23:31.598Z,35.83
2019-01-30T18:26:01.316Z,32.70
2019-01-30T18:28:29.892Z,36.40
2019-01-30T18:30:57.947Z,35.43
2019-01-30T18:33:26.050Z,34.35
2019-01-30T18:35:54.203Z,36.95
2019-01-30T18:38:23.048Z,36.67
2019-01-30T18:40:51.139Z,39.23
2019-01-30T18:43:19.934Z,38.37
2019-01-30T18:45:47.974Z,40.30
2019-01-30T18:48:16.053Z,38.50
2019-01-30T18:50:45.872Z,37.80
2019-01-30T18:53:14.194Z,41.35
2019-01-30T18:55:42.318Z,40.83
2019-01-30T18:58:10.338Z,40.23
2019-01-30T19:00:39.387Z,40.87
2019-01-30T19:03:08.636Z,43.57
2019-01-30T19:05:37.019Z,40.83
2019-01-30T19:08:06.299Z,43.30
2019-01-30T19:10:34.436Z,38.30
2019-01-30T19:13:02.606Z,44.37
2019-01-30T19:15:30.913Z,41.93
2019-01-30T19:17:59.038Z,44.65
2019-01-30T19:20:37.211Z,38.33
2019-01-30T19:23:06.975Z,43.17
2019-01-30T19:25:35.075Z,38.95
2019-01-30T19:28:03.160Z,43.60
2019-01-30T19:30:31.778Z,44.37
2019-01-30T19:33:00.118Z,39.00
2019-01-30T19:35:28.176Z,40.93
2019-01-30T19:37:56.346Z,41.35
2019-01-30T19:40:25.051Z,42.73
2019-01-30T19:42:53.074Z,38.50
2019-01-30T19:45:22.803Z,40.83
2019-01-30T19:47:50.901Z,39.10
2019-01-30T19:50:19.948Z,39.15
2019-01-30T19:52:48.278Z,40.17
2019-01-30T19:55:16.353Z,38.40
2019-01-30T19:57:44.407Z,36.03
2019-01-30T20:00:14.262Z,35.48
2019-01-30T20:02:42.361Z,36.50
2019-01-30T20:05:11.299Z,38.20
2019-01-30T20:07:39.379Z,38.37
2019-01-30T20:10:09.325Z,39.27
2019-01-30T20:12:37.633Z,39.00
2019-01-30T20:15:09.230Z,37.43
2019-01-30T20:17:37.215Z,34.43
2019-01-30T20:20:07.219Z,35.63
2019-01-30T20:22:35.466Z,38.75
2019-01-30T20:25:04.854Z,35.97
2019-01-30T20:27:33.746Z,38.10
2019-01-30T20:30:01.855Z,36.97
2019-01-30T20:32:30.746Z,34.43
2019-01-30T20:34:58.996Z,36.57
2019-01-30T20:37:27.193Z,35.93
2019-01-30T20:39:55.251Z,36.00
2019-01-30T20:42:23.360Z,38.70
2019-01-30T20:44:51.521Z,34.45
2019-01-30T20:47:19.605Z,34.08
2019-01-30T20:49:50.539Z,34.17
2019-01-30T20:52:19.052Z,32.70
2019-01-30T20:54:47.566Z,32.23
2019-01-30T20:57:15.647Z,32.48
2019-01-30T20:59:43.726Z,30.90
2019-01-30T21:02:11.821Z,29.70
2019-01-30T21:04:39.987Z,28.37
2019-01-30T21:07:08.063Z,27.87
2019-01-30T21:09:36.138Z,27.45
2019-01-30T21:12:04.243Z,30.37
2019-01-30T21:14:32.323Z,27.23
2019-01-30T21:17:00.487Z,28.97
2019-01-30T21:19:28.623Z,28.47
2019-01-30T21:21:56.683Z,28.60
2019-01-30T21:24:25.304Z,27.65
2019-01-30T21:26:53.410Z,26.57
2019-01-30T21:29:21.603Z,29.63
2019-01-30T21:31:49.642Z,28.63
2019-01-30T21:34:17.654Z,28.90
2019-01-30T21:36:45.689Z,28.43
2019-01-30T21:39:13.735Z,29.23
2019-01-30T21:41:43.099Z,28.03
2019-01-30T21:44:11.271Z,29.00
2019-01-30T21:46:39.310Z,28.40
2019-01-30T21:49:07.388Z,29.33
2019-01-30T21:51:35.551Z,30.03
2019-01-30T21:54:03.573Z,30.03
2019-01-30T21:56:31.638Z,30.17
2019-01-30T21:58:59.762Z,31.48
2019-01-30T22:01:27.875Z,30.27
2019-01-30T22:03:55.935Z,29.75
2019-01-30T22:06:23.985Z,30.97
2019-01-30T22:08:52.629Z,30.10
2019-01-30T22:11:20.674Z,32.63
2019-01-30T22:13:48.846Z,28.10
2019-01-30T22:16:16.877Z,29.52
2019-01-30T22:18:44.918Z,30.73
2019-01-30T22:21:13.734Z,28.73
2019-01-30T22:23:41.804Z,30.25
2019-01-30T22:26:10.088Z,27.73
2019-01-30T22:28:38.130Z,29.98
2019-01-30T22:31:06.280Z,30.40
2019-01-30T22:33:34.370Z,31.02
2019-01-30T22:36:02.413Z,30.50
2019-01-30T22:38:30.517Z,29.37
2019-01-30T22:40:58.531Z,29.97
2019-01-30T22:43:26.606Z,31.47
2019-01-30T22:45:54.652Z,30.63
2019-01-30T22:48:22.678Z,28.27
2019-01-30T22:50:50.807Z,28.62
2019-01-30T22:53:18.835Z,30.10
2019-01-30T22:55:46.916Z,26.80
2019-01-30T22:58:16.684Z,28.20
2019-01-30T23:00:56.762Z,26.40
2019-01-30T23:03:31.817Z,27.83
2019-01-30T23:06:13.396Z,27.17
2019-01-30T23:08:43.103Z,25.62
2019-01-30T23:11:18.554Z,26.87
2019-01-30T23:13:48.225Z,26.47
2019-01-30T23:16:26.955Z,26.23
2019-01-30T23:19:02.393Z,26.50
2019-01-30T23:21:34.862Z,29.70
2019-01-30T23:24:21.150Z,24.30
2019-01-30T23:26:50.787Z,27.17
2019-01-30T23:29:20.489Z,26.60
2019-01-30T23:31:55.907Z,29.05
2019-01-30T23:34:40.683Z,24.85
2019-01-30T23:37:19.365Z,25.40
2019-01-30T23:39:55.066Z,25.23
2019-01-30T23:42:24.718Z,25.80
2019-01-30T23:44:57.077Z,23.90
2019-01-30T23:47:26.768Z,24.63
2019-01-30T23:49:56.424Z,24.73
2019-01-30T23:52:35.726Z,25.70
2019-01-30T23:55:08.471Z,24.75
2019-01-30T23:57:44.218Z,25.37
